Priština, Kosovo

09:30 PM CET on november 25, 2014 (GMT +0100)
KHMI Prishtina | Change Station
CLOSE
Current Station
Osebne vremenske postaje
Location: Pristina,
Višina: 1886 ft
Nearby Weather Stations

Viš 1886 ft 42.65 °N, 21.14 °E | Updated 57 seconds ago

Overcast
Oblacno
38.1 °F
Feels Like 38 °F
N
1.6
Veter Spremenljivo Veter od SV
Gusts 5.4 mph

Danes
High -- | Low -- °F
--% Chance of Precip.
Yesterday
High -- | Low -- °F
Precip. -- v
6:38 AM 4:05 PM
Naraščajoči krajec, 13% visible
Zračni tlak 30.21 v
Vidljivost 6.2 milje
Oblaki Oblacno 7300 ft
Občutek zaradi vetra 38 °F
Rosišče 30 °F
Vlažnost 72%
Padavine 0.00 v
Snow Depth Not available.
UV 0 out of 12
Pollen Not available.
Air Quality Not available.
Flu Activity Not available.
METAR LWSK 252030Z 25002KT 9999 OVC073 04/01 Q1023 NOSIG

More Conditions Fewer Conditions

Zračni tlak 30.21 v
Vidljivost 6.2 milje
Oblaki Oblacno 7300 ft
Občutek zaradi vetra 38 °F
Rosišče 30 °F
Vlažnost 72%
Padavine 0.00 v
Snow Depth Not available.
UV 0 out of 12
Pollen Not available.
Air Quality Not available.
Flu Activity Not available.
METAR LWSK 252030Z 25002KT 9999 OVC073 04/01 Q1023 NOSIG

More Conditions Fewer Conditions

10-Day Weather Forecast

Almanac

Astronomija

Nov. 25, 2014 Rise Set
Actual Time
Civil Twilight
Nautical Twilight
Astronomical Twilight
Moon
Length Of Visible Light
Dolžina dneva
Tomorrow will be .
, % of the Moon is Illuminated

Današnji ekstremi

Country Highs Country Lows

Community

WunderPhotos

Upload Photos

1,773,585 photos uploaded!

WunderBlogs® & News

Nearby

Air Quality

  Air Quality AQ Index Pollutant
Not available.

Snow Depth

Station Depth Višina

Earthquake Activity

City Distance Mag. Time & Date
Minimum magnitude displayed is 2.5.

Coastal Water Temperatures

Mesto Temperatura

Nearby Weather Stations